createdAt,value
2018-02-06T00:00:06.304Z,1004.84
2018-02-06T00:00:49.347Z,1004.84
2018-02-06T00:01:29.891Z,1004.86
2018-02-06T00:02:10.423Z,1004.78
2018-02-06T00:02:50.991Z,1004.8
2018-02-06T00:03:31.502Z,1004.78
2018-02-06T00:04:12.057Z,1004.8
2018-02-06T00:04:52.569Z,1004.73
2018-02-06T00:05:33.134Z,1004.77
2018-02-06T00:06:13.677Z,1004.71
2018-02-06T00:06:54.249Z,1004.69
2018-02-06T00:07:34.745Z,1004.72
2018-02-06T00:08:15.283Z,1004.71
2018-02-06T00:08:55.834Z,1004.68
2018-02-06T00:09:36.395Z,1004.65
2018-02-06T00:10:16.970Z,1004.66
2018-02-06T00:10:57.508Z,1004.66
2018-02-06T00:11:38.052Z,1004.63
2018-02-06T00:12:18.578Z,1004.62
2018-02-06T00:12:59.056Z,1004.57
2018-02-06T00:13:39.590Z,1004.6
2018-02-06T00:14:20.112Z,1004.61
2018-02-06T00:15:00.636Z,1004.62
2018-02-06T00:15:41.164Z,1004.57
2018-02-06T00:16:21.661Z,1004.58
2018-02-06T00:17:02.221Z,1004.64
2018-02-06T00:17:42.737Z,1004.66
2018-02-06T00:18:23.430Z,1004.64
2018-02-06T00:19:03.912Z,1004.6
2018-02-06T00:19:44.486Z,1004.63
2018-02-06T00:20:25.046Z,1004.63
2018-02-06T00:21:05.552Z,1004.66
2018-02-06T00:21:46.122Z,1004.52
2018-02-06T00:22:26.646Z,1004.5
2018-02-06T00:23:07.141Z,1004.51
2018-02-06T00:23:47.702Z,1004.43
2018-02-06T00:24:28.230Z,1004.43
2018-02-06T00:25:08.753Z,1004.39
2018-02-06T00:25:49.361Z,1004.36
2018-02-06T00:26:29.823Z,1004.37
2018-02-06T00:27:10.426Z,1004.35
2018-02-06T00:27:50.961Z,1004.35
2018-02-06T00:28:31.488Z,1004.35
2018-02-06T00:29:12.026Z,1004.28
2018-02-06T00:29:52.568Z,1004.44
2018-02-06T00:30:33.073Z,1004.4
2018-02-06T00:31:13.601Z,1004.39
2018-02-06T00:31:54.150Z,1004.37
2018-02-06T00:32:34.686Z,1004.37
2018-02-06T00:33:15.261Z,1004.32
2018-02-06T00:33:55.787Z,1004.28
2018-02-06T00:34:36.301Z,1004.31
2018-02-06T00:35:16.818Z,1004.28
2018-02-06T00:35:57.353Z,1004.29
2018-02-06T00:36:37.913Z,1004.27
2018-02-06T00:37:18.421Z,1004.22
2018-02-06T00:37:58.992Z,1004.23
2018-02-06T00:38:39.537Z,1004.24
2018-02-06T00:39:20.051Z,1004.25
2018-02-06T00:40:00.613Z,1004.2
2018-02-06T00:40:41.240Z,1004.23
2018-02-06T00:41:21.696Z,1004.19
2018-02-06T00:42:02.273Z,1004.21
2018-02-06T00:42:42.766Z,1004.23
2018-02-06T00:43:23.359Z,1004.24
2018-02-06T00:44:03.894Z,1004.2
2018-02-06T00:44:44.438Z,1004.21
2018-02-06T00:45:24.925Z,1004.2
2018-02-06T00:46:05.495Z,1004.18
2018-02-06T00:46:45.986Z,1004.1
2018-02-06T00:47:26.547Z,1004.1
2018-02-06T00:48:07.054Z,1004.21
2018-02-06T00:48:47.642Z,1004.07
2018-02-06T00:49:28.157Z,1004.04
2018-02-06T00:50:08.688Z,1004.16
2018-02-06T00:50:49.225Z,1004.15
2018-02-06T00:51:29.817Z,1004.21
2018-02-06T00:52:10.362Z,1004.19
2018-02-06T00:52:50.909Z,1004.18
2018-02-06T00:53:31.445Z,1004.12
2018-02-06T00:54:11.977Z,1004.13
2018-02-06T00:54:52.498Z,1004.17
2018-02-06T00:55:33.052Z,1004.16
2018-02-06T00:56:13.577Z,1004.16
2018-02-06T00:56:54.156Z,1004.22
2018-02-06T00:57:34.672Z,1004.16
2018-02-06T00:58:15.242Z,1004.16
2018-02-06T00:58:55.815Z,1004.21
2018-02-06T00:59:36.281Z,1004.17
2018-02-06T01:00:16.829Z,1004.16
2018-02-06T01:00:57.368Z,1004.11
2018-02-06T01:01:37.942Z,1004.12
2018-02-06T01:02:18.429Z,1004.11
2018-02-06T01:02:58.995Z,1004.1
2018-02-06T01:03:39.485Z,1004.11
2018-02-06T01:04:20.014Z,1004.17
2018-02-06T01:05:00.542Z,1004.12
2018-02-06T01:05:41.069Z,1004.14
2018-02-06T01:06:21.644Z,1004.21
2018-02-06T01:07:02.162Z,1004.17
2018-02-06T01:07:42.684Z,1004.29
2018-02-06T01:08:23.220Z,1004.26
2018-02-06T01:09:03.703Z,1004.31
2018-02-06T01:09:44.247Z,1004.18
2018-02-06T01:10:24.766Z,1004.19
2018-02-06T01:11:05.356Z,1004.15
2018-02-06T01:11:46.336Z,1004.09
2018-02-06T01:12:26.414Z,1004.16
2018-02-06T01:13:06.933Z,1004.19
2018-02-06T01:13:47.468Z,1004.16
2018-02-06T01:14:27.993Z,1004.2
2018-02-06T01:15:08.536Z,1004.12
2018-02-06T01:15:49.072Z,1004.01
2018-02-06T01:16:29.612Z,1004.11
2018-02-06T01:17:10.167Z,1003.96
2018-02-06T01:17:50.735Z,1004.06
2018-02-06T01:18:31.265Z,1003.97
2018-02-06T01:19:13.593Z,1003.96
2018-02-06T01:19:54.099Z,1003.98
2018-02-06T01:20:34.651Z,1003.96
2018-02-06T01:21:15.197Z,1003.97
2018-02-06T01:21:55.700Z,1003.99
2018-02-06T01:22:36.216Z,1004
2018-02-06T01:23:16.750Z,1003.93
2018-02-06T01:23:57.276Z,1003.89
2018-02-06T01:24:37.888Z,1003.9
2018-02-06T01:25:18.461Z,1003.85
2018-02-06T01:25:58.955Z,1003.86
2018-02-06T01:26:39.516Z,1003.78
2018-02-06T01:27:19.988Z,1003.71
2018-02-06T01:28:00.535Z,1003.71
2018-02-06T01:28:41.093Z,1003.72
2018-02-06T01:29:21.676Z,1003.71
2018-02-06T01:30:02.180Z,1003.66
2018-02-06T01:30:42.733Z,1003.6
2018-02-06T01:31:23.263Z,1003.57
2018-02-06T01:32:03.840Z,1003.61
2018-02-06T01:32:44.344Z,1003.63
2018-02-06T01:33:24.875Z,1003.56
2018-02-06T01:34:05.452Z,1003.59
2018-02-06T01:34:45.992Z,1003.56
2018-02-06T01:35:26.552Z,1003.53
2018-02-06T01:36:07.077Z,1003.46
2018-02-06T01:36:47.595Z,1003.48
2018-02-06T01:37:28.137Z,1003.43
2018-02-06T01:38:08.654Z,1003.4
2018-02-06T01:38:49.199Z,1003.41
2018-02-06T01:39:29.700Z,1003.37
2018-02-06T01:40:10.244Z,1003.38
2018-02-06T01:40:50.805Z,1003.31
2018-02-06T01:41:31.357Z,1003.25
2018-02-06T01:42:11.887Z,1003.35
2018-02-06T01:42:52.400Z,1003.28
2018-02-06T01:43:32.915Z,1003.25
2018-02-06T01:44:13.450Z,1003.27
2018-02-06T01:44:54.012Z,1003.2
2018-02-06T01:45:34.511Z,1003.17
2018-02-06T01:46:15.050Z,1003.18
2018-02-06T01:46:55.596Z,1003.19
2018-02-06T01:47:36.155Z,1003.19
2018-02-06T01:48:16.636Z,1003.15
2018-02-06T01:48:57.177Z,1003.13
2018-02-06T01:49:37.756Z,1003.17
2018-02-06T01:50:18.247Z,1003.12
2018-02-06T01:50:58.841Z,1003.15
2018-02-06T01:51:39.386Z,1003.13
2018-02-06T01:52:19.878Z,1003.09
2018-02-06T01:53:00.390Z,1003.09
2018-02-06T01:53:40.898Z,1003.07
2018-02-06T01:54:21.468Z,1003.02
2018-02-06T01:55:01.962Z,1003.08
2018-02-06T01:55:42.478Z,1003.02
2018-02-06T01:56:23.024Z,1003.01
2018-02-06T01:57:03.561Z,1002.97
2018-02-06T01:57:44.100Z,1002.96
2018-02-06T01:58:24.606Z,1002.97
2018-02-06T01:59:05.148Z,1002.97
2018-02-06T01:59:45.678Z,1002.89
2018-02-06T02:00:26.222Z,1002.88
2018-02-06T02:01:06.724Z,1002.95
2018-02-06T02:01:47.250Z,1002.84
2018-02-06T02:02:27.890Z,1002.91
2018-02-06T02:03:08.390Z,1002.84
2018-02-06T02:03:48.930Z,1002.81
2018-02-06T02:04:29.449Z,1002.82
2018-02-06T02:05:10.000Z,1002.78
2018-02-06T02:05:50.511Z,1002.81
2018-02-06T02:06:31.085Z,1002.79
2018-02-06T02:07:11.568Z,1002.74
2018-02-06T02:07:52.130Z,1002.71
2018-02-06T02:08:32.704Z,1002.69
2018-02-06T02:09:13.262Z,1002.69
2018-02-06T02:09:53.796Z,1002.69
2018-02-06T02:10:34.309Z,1002.73
2018-02-06T02:11:14.906Z,1002.72
2018-02-06T02:11:55.467Z,1002.69
2018-02-06T02:12:35.947Z,1002.7
2018-02-06T02:13:16.489Z,1002.67
2018-02-06T02:13:57.026Z,1002.66
2018-02-06T02:14:37.602Z,1002.7
2018-02-06T02:15:18.191Z,1002.67
2018-02-06T02:15:58.731Z,1002.66
2018-02-06T02:16:39.208Z,1002.71
2018-02-06T02:17:19.749Z,1002.75
2018-02-06T02:18:00.287Z,1002.67
2018-02-06T02:18:40.836Z,1002.74
2018-02-06T02:19:21.395Z,1002.68
2018-02-06T02:20:02.003Z,1002.72
2018-02-06T02:20:42.505Z,1002.63
2018-02-06T02:21:23.051Z,1002.64
2018-02-06T02:22:03.545Z,1002.64
2018-02-06T02:22:44.163Z,1002.67
2018-02-06T02:23:24.689Z,1002.66
2018-02-06T02:24:05.272Z,1002.66
2018-02-06T02:24:45.795Z,1002.62
2018-02-06T02:25:26.379Z,1002.65
2018-02-06T02:26:06.845Z,1002.64
2018-02-06T02:26:47.370Z,1002.61
2018-02-06T02:27:27.981Z,1002.61
2018-02-06T02:28:08.508Z,1002.71
2018-02-06T02:28:49.042Z,1002.62
2018-02-06T02:29:29.605Z,1002.66
2018-02-06T02:30:11.969Z,1002.61
2018-02-06T02:30:52.501Z,1002.61
2018-02-06T02:31:33.063Z,1002.6
2018-02-06T02:32:13.573Z,1002.59
2018-02-06T02:32:54.103Z,1002.56
2018-02-06T02:33:34.718Z,1002.55
2018-02-06T02:34:15.228Z,1002.58
2018-02-06T02:34:55.761Z,1002.61
2018-02-06T02:35:36.288Z,1002.63
2018-02-06T02:36:16.908Z,1002.57
2018-02-06T02:36:57.418Z,1002.61
2018-02-06T02:37:37.956Z,1002.56
2018-02-06T02:38:18.489Z,1002.55
2018-02-06T02:38:58.996Z,1002.55
2018-02-06T02:39:39.529Z,1002.54
2018-02-06T02:40:20.063Z,1002.47
2018-02-06T02:41:00.589Z,1002.53
2018-02-06T02:41:41.110Z,1002.45
2018-02-06T04:38:57.560Z,1001.55
2018-02-06T04:39:38.053Z,1001.67
2018-02-06T04:40:18.565Z,1001.69
2018-02-06T04:40:59.084Z,1001.67
2018-02-06T04:41:39.662Z,1001.69
2018-02-06T04:42:20.297Z,1001.64
2018-02-06T04:43:00.782Z,1001.6
2018-02-06T04:43:41.280Z,1001.63
2018-02-06T04:44:21.830Z,1001.59
2018-02-06T04:45:02.358Z,1001.62
2018-02-06T04:45:42.876Z,1001.63
2018-02-06T04:46:23.458Z,1001.56
2018-02-06T04:47:03.939Z,1001.58
2018-02-06T04:47:44.542Z,1001.54
2018-02-06T04:48:25.127Z,1001.52
2018-02-06T04:49:05.573Z,1001.47
2018-02-06T04:49:46.121Z,1001.48
2018-02-06T04:50:26.643Z,1001.49
2018-02-06T04:51:07.186Z,1001.47
2018-02-06T04:51:47.714Z,1001.48
2018-02-06T04:52:28.294Z,1001.48
2018-02-06T04:53:08.797Z,1001.43
2018-02-06T04:53:49.340Z,1001.5
2018-02-06T04:54:29.899Z,1001.47
2018-02-06T04:55:10.439Z,1001.57
2018-02-06T04:55:50.961Z,1001.53
2018-02-06T04:56:31.499Z,1001.41
2018-02-06T04:57:12.794Z,1001.44
2018-02-06T04:57:53.342Z,1001.42
2018-02-06T04:58:33.859Z,1001.41
2018-02-06T04:59:14.409Z,1001.4
2018-02-06T04:59:54.928Z,1001.39
2018-02-06T05:00:35.459Z,1001.36
2018-02-06T05:01:16.003Z,1001.42
2018-02-06T05:01:56.549Z,1001.36
2018-02-06T05:02:37.107Z,1001.42
2018-02-06T05:03:17.628Z,1001.37
2018-02-06T05:03:58.201Z,1001.39
2018-02-06T05:04:38.705Z,1001.34
2018-02-06T05:05:19.215Z,1001.29
2018-02-06T05:05:59.764Z,1001.28
2018-02-06T05:06:40.313Z,1001.31
2018-02-06T05:07:20.801Z,1001.28
2018-02-06T05:08:01.345Z,1001.3
2018-02-06T05:08:41.844Z,1001.26
2018-02-06T05:09:22.398Z,1001.24
2018-02-06T05:10:02.871Z,1001.21
2018-02-06T05:10:43.399Z,1001.23
2018-02-06T05:11:23.938Z,1001.19
2018-02-06T05:12:04.448Z,1001.19
2018-02-06T05:12:45.004Z,1001.19
2018-02-06T05:13:25.521Z,1001.21
2018-02-06T05:14:06.139Z,1001.28
2018-02-06T05:14:46.636Z,1001.26
2018-02-06T05:15:27.152Z,1001.24
2018-02-06T05:16:07.638Z,1001.24
2018-02-06T05:16:48.192Z,1001.25
2018-02-06T05:17:28.683Z,1001.14
2018-02-06T05:18:09.250Z,1001.2
2018-02-06T05:18:49.729Z,1001.22
2018-02-06T05:19:30.253Z,1001.15
2018-02-06T05:20:10.805Z,1001.15
2018-02-06T05:20:51.351Z,1001.18
2018-02-06T05:21:31.857Z,1001.08
2018-02-06T05:22:12.374Z,1001.05
2018-02-06T05:22:52.949Z,1001.09
2018-02-06T05:23:33.573Z,1001.05
2018-02-06T05:24:14.117Z,1000.98
2018-02-06T05:24:54.672Z,1001.02
2018-02-06T05:25:35.189Z,1000.99
2018-02-06T05:26:15.727Z,1001
2018-02-06T05:26:56.291Z,1000.93
2018-02-06T05:27:36.825Z,1000.97
2018-02-06T05:28:17.418Z,1000.96
2018-02-06T05:28:57.943Z,1000.95
2018-02-06T05:29:38.444Z,1000.97
2018-02-06T05:30:18.926Z,1000.92
2018-02-06T05:30:59.487Z,1000.93
2018-02-06T05:31:39.980Z,1000.88
2018-02-06T05:32:20.512Z,1000.9
2018-02-06T05:33:01.069Z,1000.87
2018-02-06T05:33:41.649Z,1000.79
2018-02-06T05:34:22.193Z,1000.81
2018-02-06T05:35:02.711Z,1000.82
2018-02-06T05:35:43.237Z,1000.82
2018-02-06T05:36:23.798Z,1000.88
2018-02-06T05:37:04.298Z,1000.87
2018-02-06T05:37:44.837Z,1000.82
2018-02-06T05:38:25.358Z,1000.86
2018-02-06T05:39:05.902Z,1000.86
2018-02-06T05:39:46.465Z,1000.89
2018-02-06T05:40:26.980Z,1000.86
2018-02-06T05:41:07.534Z,1000.85
2018-02-06T05:41:48.078Z,1000.88
2018-02-06T05:42:28.603Z,1000.86
2018-02-06T05:43:09.144Z,1000.84
2018-02-06T05:43:49.706Z,1000.85
2018-02-06T05:44:30.225Z,1000.86
2018-02-06T05:45:10.780Z,1000.83
2018-02-06T05:45:51.330Z,1000.81
2018-02-06T05:46:31.846Z,1000.78
2018-02-06T05:47:12.430Z,1000.72
2018-02-06T05:47:53.120Z,1000.69
2018-02-06T05:48:33.681Z,1000.73
2018-02-06T05:49:14.151Z,1000.72
2018-02-06T05:49:54.676Z,1000.74
2018-02-06T05:50:35.202Z,1000.71
2018-02-06T05:51:15.737Z,1000.66
2018-02-06T05:51:56.292Z,1000.64
2018-02-06T05:52:36.801Z,1000.67
2018-02-06T05:53:17.363Z,1000.66
2018-02-06T05:53:57.860Z,1000.6
2018-02-06T05:54:38.427Z,1000.65
2018-02-06T05:55:18.952Z,1000.61
2018-02-06T05:55:59.497Z,1000.65
2018-02-06T05:56:40.061Z,1000.57
2018-02-06T05:57:20.557Z,1000.6
2018-02-06T05:58:01.072Z,1000.6
2018-02-06T05:58:41.643Z,1000.57
2018-02-06T05:59:22.187Z,1000.53
2018-02-06T06:00:02.757Z,1000.59
2018-02-06T06:00:43.276Z,1000.62
2018-02-06T06:01:23.775Z,1000.57
2018-02-06T06:02:04.397Z,1000.54
2018-02-06T06:02:44.938Z,1000.55
2018-02-06T06:03:25.507Z,1000.58
2018-02-06T06:04:06.065Z,1000.57
2018-02-06T06:04:46.709Z,1000.52
2018-02-06T06:05:27.203Z,1000.53
2018-02-06T06:06:07.796Z,1000.52
2018-02-06T06:06:48.367Z,1000.47
2018-02-06T06:07:28.873Z,1000.48
2018-02-06T06:08:09.435Z,1000.42
2018-02-06T06:08:49.981Z,1000.38
2018-02-06T06:09:30.587Z,1000.4
2018-02-06T06:10:11.151Z,1000.37
2018-02-06T06:10:51.685Z,1000.39
2018-02-06T06:11:32.199Z,1000.37
2018-02-06T06:12:12.735Z,1000.35
2018-02-06T06:12:53.227Z,1000.38
2018-02-06T06:13:33.829Z,1000.39
2018-02-06T06:14:14.403Z,1000.39
2018-02-06T06:14:55.117Z,1000.45
2018-02-06T06:15:35.653Z,1000.47
2018-02-06T06:16:16.335Z,1000.47
2018-02-06T06:16:56.825Z,1000.45
2018-02-06T06:17:37.404Z,1000.5
2018-02-06T06:18:17.941Z,1000.5
2018-02-06T06:18:58.548Z,1000.57
2018-02-06T06:19:39.143Z,1000.51
2018-02-06T06:20:19.680Z,1000.56
2018-02-06T06:21:00.260Z,1000.54
2018-02-06T06:21:40.804Z,1000.55
2018-02-06T06:22:21.398Z,1000.53
2018-02-06T06:23:01.989Z,1000.5
2018-02-06T06:23:42.520Z,1000.48
2018-02-06T06:24:23.173Z,1000.48
2018-02-06T06:25:03.693Z,1000.44
2018-02-06T06:25:44.523Z,1000.45
2018-02-06T06:26:31.952Z,1000.43
2018-02-06T06:27:12.535Z,1000.5
2018-02-06T06:27:53.032Z,1000.5
2018-02-06T06:28:33.980Z,1000.53
2018-02-06T06:29:14.176Z,1000.54
2018-02-06T06:29:54.722Z,1000.55
2018-02-06T06:30:35.345Z,1000.53
2018-02-06T06:31:15.955Z,1000.52
2018-02-06T06:31:56.630Z,1000.53
2018-02-06T06:32:37.246Z,1000.54
2018-02-06T06:33:18.266Z,1000.51
2018-02-06T06:33:58.889Z,1000.5
2018-02-06T06:34:39.384Z,1000.48
2018-02-06T06:35:19.921Z,1000.54
2018-02-06T06:36:00.607Z,1000.53
2018-02-06T06:36:41.311Z,1000.52
2018-02-06T06:37:21.801Z,1000.45
2018-02-06T06:38:02.312Z,1000.49
2018-02-06T06:38:42.857Z,1000.57
2018-02-06T06:39:23.403Z,1000.47
2018-02-06T06:40:03.872Z,1000.53
2018-02-06T06:40:44.496Z,1000.55
2018-02-06T06:41:24.996Z,1000.5
2018-02-06T06:42:05.585Z,1000.53
2018-02-06T06:42:46.145Z,1000.56
2018-02-06T06:43:26.683Z,1000.56
2018-02-06T06:44:07.185Z,1000.63
2018-02-06T06:44:47.850Z,1000.62
2018-02-06T06:45:28.325Z,1000.63
2018-02-06T06:46:08.859Z,1000.61
2018-02-06T06:46:49.429Z,1000.52
2018-02-06T06:47:29.961Z,1000.55
2018-02-06T06:48:10.639Z,1000.57
2018-02-06T06:48:51.176Z,1000.59
2018-02-06T06:49:31.764Z,1000.62
2018-02-06T06:50:12.269Z,1000.65
2018-02-06T06:50:52.797Z,1000.6
2018-02-06T06:51:33.453Z,1000.67
2018-02-06T06:52:14.626Z,1000.61
2018-02-06T06:52:55.140Z,1000.64
2018-02-06T06:53:35.676Z,1000.63
2018-02-06T06:54:16.198Z,1000.58
2018-02-06T06:54:56.840Z,1000.57
2018-02-06T06:55:37.366Z,1000.52
2018-02-06T06:56:17.882Z,1000.55
2018-02-06T06:56:58.418Z,1000.58
2018-02-06T06:57:39.130Z,1000.56
2018-02-06T06:58:19.609Z,1000.56
2018-02-06T06:59:00.218Z,1000.57
2018-02-06T06:59:40.716Z,1000.59
2018-02-06T07:00:21.323Z,1000.51
2018-02-06T07:01:01.815Z,1000.52
2018-02-06T07:01:42.323Z,1000.53
2018-02-06T07:02:22.908Z,1000.55
2018-02-06T07:03:03.387Z,1000.52
2018-02-06T07:03:43.988Z,1000.5
2018-02-06T07:04:24.478Z,1000.47
2018-02-06T07:05:05.026Z,1000.5
2018-02-06T07:05:45.591Z,1000.47
2018-02-06T07:06:26.121Z,1000.49
2018-02-06T07:07:06.674Z,1000.48
2018-02-06T07:07:47.158Z,1000.52
2018-02-06T07:08:27.680Z,1000.48
2018-02-06T07:09:08.211Z,1000.52
2018-02-06T07:09:48.722Z,1000.49
2018-02-06T07:10:29.350Z,1000.43
2018-02-06T07:11:09.871Z,1000.48
2018-02-06T07:11:50.416Z,1000.47
2018-02-06T07:12:30.989Z,1000.49
2018-02-06T07:13:11.570Z,1000.54
2018-02-06T07:13:52.097Z,1000.52
2018-02-06T07:14:32.600Z,1000.56
2018-02-06T07:15:13.179Z,1000.54
2018-02-06T07:15:53.732Z,1000.51
2018-02-06T07:16:34.253Z,1000.47
2018-02-06T07:17:14.751Z,1000.44
2018-02-06T07:17:55.316Z,1000.43
2018-02-06T07:18:35.874Z,1000.43
2018-02-06T07:19:16.380Z,1000.4
2018-02-06T07:19:56.941Z,1000.39
2018-02-06T07:20:37.555Z,1000.41
2018-02-06T07:21:18.063Z,1000.37
2018-02-06T07:21:58.605Z,1000.38
2018-02-06T07:22:39.132Z,1000.31
2018-02-06T07:23:19.659Z,1000.41
2018-02-06T07:24:00.179Z,1000.39
2018-02-06T07:24:40.688Z,1000.42
2018-02-06T07:25:21.251Z,1000.42
2018-02-06T07:26:01.816Z,1000.4
2018-02-06T07:26:42.446Z,1000.35
2018-02-06T07:27:22.968Z,1000.29
2018-02-06T07:28:03.452Z,1000.35
2018-02-06T07:28:44.058Z,1000.34
2018-02-06T07:29:24.588Z,1000.36
2018-02-06T07:30:05.106Z,1000.4
2018-02-06T07:30:45.746Z,1000.38
2018-02-06T07:31:26.296Z,1000.41
2018-02-06T07:32:06.825Z,1000.36
2018-02-06T07:32:47.384Z,1000.39
2018-02-06T07:33:27.928Z,1000.37
2018-02-06T07:34:08.471Z,1000.37
2018-02-06T07:34:49.017Z,1000.35
2018-02-06T07:35:29.540Z,1000.38
2018-02-06T07:36:10.068Z,1000.31
2018-02-06T07:36:50.604Z,1000.29
2018-02-06T07:37:31.190Z,1000.31
2018-02-06T07:38:11.682Z,1000.33
2018-02-06T07:38:52.233Z,1000.31
2018-02-06T07:39:32.916Z,1000.29
2018-02-06T07:40:13.494Z,1000.29
2018-02-06T07:40:54.008Z,1000.29
2018-02-06T07:41:34.556Z,1000.25
2018-02-06T07:42:15.084Z,1000.29
2018-02-06T07:42:55.669Z,1000.24
2018-02-06T07:43:36.346Z,1000.26
2018-02-06T07:44:16.896Z,1000.25
2018-02-06T07:44:57.432Z,1000.28
2018-02-06T07:45:38.028Z,1000.29
2018-02-06T07:46:18.600Z,1000.26
2018-02-06T07:46:59.113Z,1000.27
2018-02-06T07:47:39.598Z,1000.25
2018-02-06T07:48:20.137Z,1000.26
2018-02-06T07:49:00.712Z,1000.33
2018-02-06T07:49:41.211Z,1000.25
2018-02-06T07:50:21.728Z,1000.19
2018-02-06T07:51:02.367Z,1000.24
2018-02-06T07:51:42.899Z,1000.2
2018-02-06T07:52:23.396Z,1000.19
2018-02-06T07:53:03.916Z,1000.15
2018-02-06T07:53:44.501Z,1000.23
2018-02-06T07:54:25.015Z,1000.22
2018-02-06T07:55:05.528Z,1000.22
2018-02-06T07:55:46.120Z,1000.2
2018-02-06T07:56:26.617Z,1000.24
2018-02-06T07:57:07.234Z,1000.26
2018-02-06T07:57:47.735Z,1000.29
2018-02-06T07:58:28.242Z,1000.29
2018-02-06T07:59:08.806Z,1000.33
2018-02-06T07:59:49.329Z,1000.31
2018-02-06T08:00:29.959Z,1000.3
2018-02-06T08:01:10.492Z,1000.28
2018-02-06T08:01:51.026Z,1000.28
2018-02-06T08:02:31.602Z,1000.28
2018-02-06T08:03:12.127Z,1000.32
2018-02-06T08:03:52.667Z,1000.3
2018-02-06T08:04:33.237Z,1000.26
2018-02-06T08:05:13.901Z,1000.31
2018-02-06T08:05:54.423Z,1000.29
2018-02-06T08:06:34.907Z,1000.31
2018-02-06T08:07:15.464Z,1000.31
2018-02-06T08:07:56.048Z,1000.31
2018-02-06T08:08:36.580Z,1000.31
2018-02-06T08:09:17.111Z,1000.33
2018-02-06T08:09:57.669Z,1000.33
2018-02-06T08:10:38.180Z,1000.29
2018-02-06T08:11:18.725Z,1000.24
2018-02-06T08:11:59.353Z,1000.26
2018-02-06T08:12:39.857Z,1000.28
2018-02-06T08:13:20.471Z,1000.2
2018-02-06T08:14:00.973Z,1000.27
2018-02-06T08:14:41.541Z,1000.27
2018-02-06T08:15:22.102Z,1000.25
2018-02-06T08:16:02.586Z,1000.22
2018-02-06T08:16:43.301Z,1000.21
2018-02-06T08:17:23.773Z,1000.21
2018-02-06T08:18:04.379Z,1000.24
2018-02-06T08:18:44.960Z,1000.25
2018-02-06T08:19:25.510Z,1000.2
2018-02-06T08:20:06.050Z,1000.23
2018-02-06T08:20:46.554Z,1000.25
2018-02-06T08:21:27.113Z,1000.25
2018-02-06T08:22:07.635Z,1000.26
2018-02-06T08:22:48.189Z,1000.25
2018-02-06T08:23:28.726Z,1000.16
2018-02-06T08:24:09.301Z,1000.21
2018-02-06T08:24:49.847Z,1000.21
2018-02-06T08:25:30.389Z,1000.18
2018-02-06T08:26:11.024Z,1000.16
2018-02-06T08:26:51.503Z,1000.16
2018-02-06T08:27:32.052Z,1000.19
2018-02-06T08:28:12.578Z,1000.23
2018-02-06T08:28:53.152Z,1000.19
2018-02-06T08:29:33.692Z,1000.18
2018-02-06T08:30:14.259Z,1000.11
2018-02-06T08:30:54.788Z,1000.12
2018-02-06T08:31:35.419Z,1000.16
2018-02-06T08:32:15.977Z,1000.11
2018-02-06T08:32:56.464Z,1000.09
2018-02-06T08:33:37.023Z,1000.08
2018-02-06T08:34:17.585Z,1000.12
2018-02-06T08:34:58.167Z,1000.11
2018-02-06T08:35:39.322Z,1000.1
2018-02-06T08:36:19.293Z,1000.08
2018-02-06T08:36:59.819Z,1000.12
2018-02-06T08:37:40.362Z,1000.13
2018-02-06T08:38:20.884Z,1000.09
2018-02-06T08:39:01.416Z,1000.09
2018-02-06T08:39:41.947Z,1000.12
2018-02-06T08:40:22.503Z,1000.1
2018-02-06T08:41:02.992Z,1000.08
2018-02-06T08:41:43.562Z,1000.01
2018-02-06T08:42:24.047Z,1000.06
2018-02-06T08:43:04.715Z,1000.02
2018-02-06T08:43:45.147Z,1000.04
2018-02-06T08:44:25.726Z,1000.06
2018-02-06T08:45:06.344Z,1000.08
2018-02-06T08:45:46.862Z,1000.07
2018-02-06T08:46:27.387Z,1000.07
2018-02-06T08:47:07.903Z,1000.1
2018-02-06T08:47:48.426Z,1000.12
2018-02-06T08:48:28.950Z,1000.09
2018-02-06T08:49:09.517Z,1000.06
2018-02-06T08:49:50.033Z,1000.11
2018-02-06T08:50:30.623Z,1000.07
2018-02-06T08:51:11.186Z,1000.07
2018-02-06T08:51:51.721Z,1000.05
2018-02-06T08:52:34.524Z,1000.04
2018-02-06T08:53:16.029Z,1000.04
2018-02-06T08:53:57.222Z,1000.04
2018-02-06T08:54:37.755Z,1000.07
2018-02-06T08:55:18.389Z,1000.07
2018-02-06T08:55:58.926Z,1000
2018-02-06T08:56:39.455Z,1000.04
2018-02-06T08:57:19.990Z,1000.02
2018-02-06T08:58:00.512Z,1000.02
2018-02-06T08:58:41.087Z,999.98
2018-02-06T08:59:21.640Z,1000.02
2018-02-06T09:00:02.170Z,1000.04
2018-02-06T09:00:42.761Z,1000.01
2018-02-06T09:01:23.325Z,999.99
2018-02-06T09:02:03.862Z,1000.01
2018-02-06T09:02:44.430Z,999.98
2018-02-06T09:03:24.951Z,1000.01
2018-02-06T09:04:05.451Z,999.99
2018-02-06T09:04:46.009Z,999.98
2018-02-06T09:05:26.589Z,1000.05
2018-02-06T09:06:07.122Z,999.99
2018-02-06T09:06:47.614Z,999.99
2018-02-06T09:07:28.129Z,1000.02
2018-02-06T09:08:08.664Z,1000.01
2018-02-06T09:08:49.202Z,1000.01
2018-02-06T09:09:29.750Z,1000.05
2018-02-06T09:10:10.241Z,1000
2018-02-06T09:10:50.831Z,1000.01
2018-02-06T09:11:31.385Z,1000.02
2018-02-06T09:12:11.975Z,1000.04
2018-02-06T09:12:52.569Z,1000.05
2018-02-06T09:13:33.071Z,1000.05
2018-02-06T09:14:13.622Z,1000.04
2018-02-06T09:14:54.192Z,1000.08
2018-02-06T09:15:34.735Z,1000.01
2018-02-06T09:16:15.267Z,1000.02
2018-02-06T09:16:55.798Z,1000.01
2018-02-06T09:17:36.308Z,1000.01
2018-02-06T09:18:16.867Z,1000.03
2018-02-06T09:18:57.399Z,1000
2018-02-06T09:19:37.956Z,1000.03
2018-02-06T09:20:18.505Z,1000.03
2018-02-06T09:20:59.024Z,1000.06
2018-02-06T09:21:39.566Z,1000.04
2018-02-06T09:22:20.049Z,1000.04
2018-02-06T09:23:00.592Z,1000.05
2018-02-06T09:23:41.148Z,1000.04
2018-02-06T09:24:21.699Z,1000.03
2018-02-06T09:25:02.219Z,1000.05
2018-02-06T09:25:42.852Z,1000
2018-02-06T09:26:23.424Z,999.98
2018-02-06T09:27:03.969Z,1000.01
2018-02-06T09:27:44.458Z,1000.02
2018-02-06T09:28:24.992Z,999.99
2018-02-06T09:29:05.524Z,999.99
2018-02-06T09:29:46.081Z,1000.01
2018-02-06T09:30:26.608Z,999.98
2018-02-06T09:31:07.115Z,999.97
2018-02-06T09:31:47.766Z,999.91
2018-02-06T09:32:28.220Z,999.97
2018-02-06T09:33:08.767Z,999.97
2018-02-06T09:33:49.288Z,999.98
2018-02-06T09:34:29.837Z,999.97
2018-02-06T09:35:10.378Z,1000
2018-02-06T09:35:50.885Z,999.96
2018-02-06T09:36:31.434Z,999.99
2018-02-06T09:37:11.992Z,999.95
2018-02-06T09:37:52.516Z,999.96
2018-02-06T09:38:33.035Z,999.94
2018-02-06T09:39:13.612Z,999.98
2018-02-06T09:39:54.179Z,999.92
2018-02-06T09:40:34.675Z,999.96
2018-02-06T09:41:15.216Z,999.96
2018-02-06T09:41:55.732Z,999.92
2018-02-06T09:42:36.391Z,999.95
2018-02-06T09:43:17.002Z,999.94
2018-02-06T09:43:57.574Z,999.92
2018-02-06T09:44:38.111Z,999.89
2018-02-06T09:45:18.657Z,999.87
2018-02-06T09:45:59.322Z,999.87
2018-02-06T09:46:39.848Z,999.88
2018-02-06T09:47:20.417Z,999.84
2018-02-06T09:48:00.960Z,999.85
2018-02-06T09:48:41.465Z,999.79
2018-02-06T09:49:22.062Z,999.78
2018-02-06T09:50:02.572Z,999.81
2018-02-06T09:50:43.136Z,999.85
2018-02-06T09:51:23.632Z,999.87
2018-02-06T09:52:04.235Z,999.83
2018-02-06T09:52:44.732Z,999.83
2018-02-06T09:53:25.257Z,999.79
2018-02-06T09:54:05.793Z,999.8
2018-02-06T09:54:46.308Z,999.79
2018-02-06T09:55:26.854Z,999.82
2018-02-06T09:56:07.412Z,999.8
2018-02-06T09:56:47.979Z,999.83
2018-02-06T09:57:28.542Z,999.78
2018-02-06T09:58:09.088Z,999.75
2018-02-06T09:58:49.643Z,999.85
2018-02-06T09:59:30.175Z,999.79
2018-02-06T10:00:10.714Z,999.79
2018-02-06T10:00:51.257Z,999.78
2018-02-06T10:01:31.804Z,999.77
2018-02-06T10:02:12.334Z,999.77
2018-02-06T10:02:52.893Z,999.77
2018-02-06T10:03:33.394Z,999.76
2018-02-06T10:04:13.906Z,999.81
2018-02-06T10:04:54.514Z,999.76
2018-02-06T10:05:35.137Z,999.78
2018-02-06T10:06:15.691Z,999.74
2018-02-06T10:06:56.444Z,999.7
2018-02-06T10:07:36.764Z,999.7
2018-02-06T10:08:17.367Z,999.73
2018-02-06T10:08:57.972Z,999.67
2018-02-06T10:09:38.708Z,999.69
2018-02-06T10:10:19.287Z,999.67